sensor_id;sensor_type;location;lat;lon;timestamp;temperature;humidity
39931;DHT22;26635;-35.248;149.138;2024-01-30T00:00:05;25.10;60.20
39931;DHT22;26635;-35.248;149.138;2024-01-30T00:02:35;25.20;61.60
39931;DHT22;26635;-35.248;149.138;2024-01-30T00:05:06;25.10;62.70
39931;DHT22;26635;-35.248;149.138;2024-01-30T00:07:37;25.10;64.20
39931;DHT22;26635;-35.248;149.138;2024-01-30T00:10:07;25.10;65.00
39931;DHT22;26635;-35.248;149.138;2024-01-30T00:12:38;25.20;64.50
39931;DHT22;26635;-35.248;149.138;2024-01-30T00:15:08;25.10;64.00
39931;DHT22;26635;-35.248;149.138;2024-01-30T00:17:39;25.00;64.00
39931;DHT22;26635;-35.248;149.138;2024-01-30T00:20:10;25.00;65.20
39931;DHT22;26635;-35.248;149.138;2024-01-30T00:22:40;25.00;66.50
39931;DHT22;26635;-35.248;149.138;2024-01-30T00:25:11;25.20;65.80
39931;DHT22;26635;-35.248;149.138;2024-01-30T00:27:42;25.60;63.60
39931;DHT22;26635;-35.248;149.138;2024-01-30T00:30:12;25.80;64.20
39931;DHT22;26635;-35.248;149.138;2024-01-30T00:32:43;25.90;63.10
39931;DHT22;26635;-35.248;149.138;2024-01-30T00:35:13;25.80;63.50
39931;DHT22;26635;-35.248;149.138;2024-01-30T00:37:44;25.80;64.00
39931;DHT22;26635;-35.248;149.138;2024-01-30T00:40:15;25.80;64.00
39931;DHT22;26635;-35.248;149.138;2024-01-30T00:42:48;25.70;64.80
39931;DHT22;26635;-35.248;149.138;2024-01-30T00:45:19;25.70;65.20
39931;DHT22;26635;-35.248;149.138;2024-01-30T00:47:53;25.80;64.90
39931;DHT22;26635;-35.248;149.138;2024-01-30T00:50:23;26.10;65.20
39931;DHT22;26635;-35.248;149.138;2024-01-30T00:52:54;26.40;64.40
39931;DHT22;26635;-35.248;149.138;2024-01-30T00:55:24;26.80;63.80
39931;DHT22;26635;-35.248;149.138;2024-01-30T00:57:54;27.00;62.60
39931;DHT22;26635;-35.248;149.138;2024-01-30T01:00:25;26.90;63.00
39931;DHT22;26635;-35.248;149.138;2024-01-30T01:02:59;26.70;62.70
39931;DHT22;26635;-35.248;149.138;2024-01-30T01:05:30;26.60;64.00
39931;DHT22;26635;-35.248;149.138;2024-01-30T01:08:00;26.40;63.30
39931;DHT22;26635;-35.248;149.138;2024-01-30T01:10:31;26.60;63.80
39931;DHT22;26635;-35.248;149.138;2024-01-30T01:13:02;26.70;63.60
39931;DHT22;26635;-35.248;149.138;2024-01-30T01:15:33;26.60;63.40
39931;DHT22;26635;-35.248;149.138;2024-01-30T01:18:04;26.70;63.50
39931;DHT22;26635;-35.248;149.138;2024-01-30T01:20:34;26.70;63.60
39931;DHT22;26635;-35.248;149.138;2024-01-30T01:23:04;26.60;63.70
39931;DHT22;26635;-35.248;149.138;2024-01-30T01:25:35;26.60;65.10
39931;DHT22;26635;-35.248;149.138;2024-01-30T01:28:06;26.80;65.30
39931;DHT22;26635;-35.248;149.138;2024-01-30T01:30:36;27.00;65.20
39931;DHT22;26635;-35.248;149.138;2024-01-30T01:33:07;27.30;65.30
39931;DHT22;26635;-35.248;149.138;2024-01-30T01:35:39;27.70;64.10
39931;DHT22;26635;-35.248;149.138;2024-01-30T01:38:12;28.00;62.90
39931;DHT22;26635;-35.248;149.138;2024-01-30T01:40:50;28.10;62.80
39931;DHT22;26635;-35.248;149.138;2024-01-30T01:43:20;28.10;61.90
39931;DHT22;26635;-35.248;149.138;2024-01-30T01:45:51;28.30;62.70
39931;DHT22;26635;-35.248;149.138;2024-01-30T01:48:21;28.40;62.50
39931;DHT22;26635;-35.248;149.138;2024-01-30T01:50:53;28.50;61.40
39931;DHT22;26635;-35.248;149.138;2024-01-30T01:53:23;28.60;61.70
39931;DHT22;26635;-35.248;149.138;2024-01-30T01:55:55;28.80;61.30
39931;DHT22;26635;-35.248;149.138;2024-01-30T01:58:47;28.80;60.30
39931;DHT22;26635;-35.248;149.138;2024-01-30T02:01:20;28.90;61.00
39931;DHT22;26635;-35.248;149.138;2024-01-30T02:03:51;29.00;61.00
39931;DHT22;26635;-35.248;149.138;2024-01-30T02:06:23;29.10;61.00
39931;DHT22;26635;-35.248;149.138;2024-01-30T02:08:54;29.20;60.40
39931;DHT22;26635;-35.248;149.138;2024-01-30T02:11:25;29.20;60.80
39931;DHT22;26635;-35.248;149.138;2024-01-30T02:13:56;29.30;60.70
39931;DHT22;26635;-35.248;149.138;2024-01-30T02:16:27;29.40;61.00
39931;DHT22;26635;-35.248;149.138;2024-01-30T02:18:59;29.50;60.70
39931;DHT22;26635;-35.248;149.138;2024-01-30T02:21:31;29.50;60.80
39931;DHT22;26635;-35.248;149.138;2024-01-30T02:24:06;29.60;60.70
39931;DHT22;26635;-35.248;149.138;2024-01-30T02:26:36;29.70;60.80
39931;DHT22;26635;-35.248;149.138;2024-01-30T02:29:07;29.70;60.40
39931;DHT22;26635;-35.248;149.138;2024-01-30T02:31:37;29.60;59.40
39931;DHT22;26635;-35.248;149.138;2024-01-30T02:34:07;29.50;60.60
39931;DHT22;26635;-35.248;149.138;2024-01-30T02:36:38;29.60;60.70
39931;DHT22;26635;-35.248;149.138;2024-01-30T02:39:08;29.60;61.00
39931;DHT22;26635;-35.248;149.138;2024-01-30T02:41:39;29.70;61.80
39931;DHT22;26635;-35.248;149.138;2024-01-30T02:44:12;29.90;61.00
39931;DHT22;26635;-35.248;149.138;2024-01-30T02:46:48;29.90;60.60
39931;DHT22;26635;-35.248;149.138;2024-01-30T02:49:19;29.90;61.70
39931;DHT22;26635;-35.248;149.138;2024-01-30T02:51:51;29.90;60.90
39931;DHT22;26635;-35.248;149.138;2024-01-30T02:54:22;29.80;61.20
39931;DHT22;26635;-35.248;149.138;2024-01-30T02:56:52;29.80;61.40
39931;DHT22;26635;-35.248;149.138;2024-01-30T02:59:22;29.70;60.40
39931;DHT22;26635;-35.248;149.138;2024-01-30T03:01:53;29.40;60.70
39931;DHT22;26635;-35.248;149.138;2024-01-30T03:04:23;29.20;60.70
39931;DHT22;26635;-35.248;149.138;2024-01-30T03:06:54;29.30;62.50
39931;DHT22;26635;-35.248;149.138;2024-01-30T03:09:24;29.30;61.70
39931;DHT22;26635;-35.248;149.138;2024-01-30T03:11:55;29.40;62.10
39931;DHT22;26635;-35.248;149.138;2024-01-30T03:14:45;29.50;63.20
39931;DHT22;26635;-35.248;149.138;2024-01-30T03:17:17;29.60;62.90
39931;DHT22;26635;-35.248;149.138;2024-01-30T03:19:49;29.70;61.90
39931;DHT22;26635;-35.248;149.138;2024-01-30T03:22:19;29.80;62.20
39931;DHT22;26635;-35.248;149.138;2024-01-30T03:24:50;30.00;61.90
39931;DHT22;26635;-35.248;149.138;2024-01-30T03:27:21;30.10;61.10
39931;DHT22;26635;-35.248;149.138;2024-01-30T03:29:52;30.20;61.40
39931;DHT22;26635;-35.248;149.138;2024-01-30T03:32:22;30.40;61.80
39931;DHT22;26635;-35.248;149.138;2024-01-30T03:34:53;30.50;60.60
39931;DHT22;26635;-35.248;149.138;2024-01-30T03:37:23;30.50;60.50
39931;DHT22;26635;-35.248;149.138;2024-01-30T03:39:54;30.30;60.50
39931;DHT22;26635;-35.248;149.138;2024-01-30T03:42:24;29.90;60.60
39931;DHT22;26635;-35.248;149.138;2024-01-30T03:44:56;30.00;61.50
39931;DHT22;26635;-35.248;149.138;2024-01-30T03:47:27;29.80;61.10
39931;DHT22;26635;-35.248;149.138;2024-01-30T03:49:58;29.70;61.70
39931;DHT22;26635;-35.248;149.138;2024-01-30T03:52:28;29.50;62.30
39931;DHT22;26635;-35.248;149.138;2024-01-30T03:54:59;29.40;62.80
39931;DHT22;26635;-35.248;149.138;2024-01-30T03:57:29;29.20;63.40
39931;DHT22;26635;-35.248;149.138;2024-01-30T04:00:00;29.10;63.20
39931;DHT22;26635;-35.248;149.138;2024-01-30T04:02:30;29.10;63.70
39931;DHT22;26635;-35.248;149.138;2024-01-30T04:05:01;29.10;63.80
39931;DHT22;26635;-35.248;149.138;2024-01-30T04:07:31;29.10;64.30
39931;DHT22;26635;-35.248;149.138;2024-01-30T04:10:02;29.10;64.10
39931;DHT22;26635;-35.248;149.138;2024-01-30T04:12:36;29.10;63.20
39931;DHT22;26635;-35.248;149.138;2024-01-30T04:15:08;29.20;64.50
39931;DHT22;26635;-35.248;149.138;2024-01-30T04:17:39;29.40;63.90
39931;DHT22;26635;-35.248;149.138;2024-01-30T04:20:14;29.40;63.80
39931;DHT22;26635;-35.248;149.138;2024-01-30T04:22:48;29.40;62.60
39931;DHT22;26635;-35.248;149.138;2024-01-30T04:25:18;29.40;63.40
39931;DHT22;26635;-35.248;149.138;2024-01-30T04:27:49;29.40;62.80
39931;DHT22;26635;-35.248;149.138;2024-01-30T04:30:19;29.40;63.00
39931;DHT22;26635;-35.248;149.138;2024-01-30T04:32:50;29.30;62.70
39931;DHT22;26635;-35.248;149.138;2024-01-30T04:35:20;29.20;63.20
39931;DHT22;26635;-35.248;149.138;2024-01-30T04:37:54;29.30;63.90
39931;DHT22;26635;-35.248;149.138;2024-01-30T04:40:25;29.30;64.60
39931;DHT22;26635;-35.248;149.138;2024-01-30T04:42:56;29.30;63.50
39931;DHT22;26635;-35.248;149.138;2024-01-30T04:45:29;29.30;63.40
39931;DHT22;26635;-35.248;149.138;2024-01-30T04:47:59;29.30;63.70
39931;DHT22;26635;-35.248;149.138;2024-01-30T04:50:30;29.20;63.90
39931;DHT22;26635;-35.248;149.138;2024-01-30T04:53:00;29.40;63.60
39931;DHT22;26635;-35.248;149.138;2024-01-30T04:55:31;29.50;63.70
39931;DHT22;26635;-35.248;149.138;2024-01-30T04:58:01;29.40;62.90
39931;DHT22;26635;-35.248;149.138;2024-01-30T05:00:33;29.20;63.00
39931;DHT22;26635;-35.248;149.138;2024-01-30T05:03:03;29.00;63.60
39931;DHT22;26635;-35.248;149.138;2024-01-30T05:05:35;28.80;64.40
39931;DHT22;26635;-35.248;149.138;2024-01-30T05:08:06;28.80;64.90
39931;DHT22;26635;-35.248;149.138;2024-01-30T05:10:37;28.90;64.60
39931;DHT22;26635;-35.248;149.138;2024-01-30T05:13:08;28.80;64.50
39931;DHT22;26635;-35.248;149.138;2024-01-30T05:15:39;28.90;64.50
39931;DHT22;26635;-35.248;149.138;2024-01-30T05:18:11;28.90;64.80
39931;DHT22;26635;-35.248;149.138;2024-01-30T05:20:42;28.80;63.80
39931;DHT22;26635;-35.248;149.138;2024-01-30T05:23:12;28.80;65.40
39931;DHT22;26635;-35.248;149.138;2024-01-30T05:25:42;28.80;64.60
39931;DHT22;26635;-35.248;149.138;2024-01-30T05:28:14;28.70;64.60
39931;DHT22;26635;-35.248;149.138;2024-01-30T05:30:44;28.70;64.90
39931;DHT22;26635;-35.248;149.138;2024-01-30T05:33:15;28.60;64.80
39931;DHT22;26635;-35.248;149.138;2024-01-30T05:35:46;28.60;65.50
39931;DHT22;26635;-35.248;149.138;2024-01-30T05:38:17;28.60;64.50
39931;DHT22;26635;-35.248;149.138;2024-01-30T05:41:09;28.60;65.30
39931;DHT22;26635;-35.248;149.138;2024-01-30T05:43:39;28.60;65.40
39931;DHT22;26635;-35.248;149.138;2024-01-30T05:46:11;28.70;64.80
39931;DHT22;26635;-35.248;149.138;2024-01-30T05:48:42;28.80;65.90
39931;DHT22;26635;-35.248;149.138;2024-01-30T05:51:13;28.80;64.10
39931;DHT22;26635;-35.248;149.138;2024-01-30T05:53:43;28.70;64.70
39931;DHT22;26635;-35.248;149.138;2024-01-30T05:56:14;28.70;64.90
39931;DHT22;26635;-35.248;149.138;2024-01-30T05:58:45;28.60;64.70
39931;DHT22;26635;-35.248;149.138;2024-01-30T06:01:15;28.70;65.20
39931;DHT22;26635;-35.248;149.138;2024-01-30T06:03:46;28.70;63.20
39931;DHT22;26635;-35.248;149.138;2024-01-30T06:06:17;28.60;63.50
39931;DHT22;26635;-35.248;149.138;2024-01-30T06:08:48;28.60;63.90
39931;DHT22;26635;-35.248;149.138;2024-01-30T06:11:39;28.60;63.90
39931;DHT22;26635;-35.248;149.138;2024-01-30T06:14:09;28.50;63.70
39931;DHT22;26635;-35.248;149.138;2024-01-30T06:16:40;28.50;64.10
39931;DHT22;26635;-35.248;149.138;2024-01-30T06:19:30;28.40;65.00
39931;DHT22;26635;-35.248;149.138;2024-01-30T06:22:00;28.40;65.30
39931;DHT22;26635;-35.248;149.138;2024-01-30T06:24:31;28.40;65.10
39931;DHT22;26635;-35.248;149.138;2024-01-30T06:27:03;28.40;65.10
39931;DHT22;26635;-35.248;149.138;2024-01-30T06:29:33;28.40;65.30
39931;DHT22;26635;-35.248;149.138;2024-01-30T06:32:05;28.40;65.10
39931;DHT22;26635;-35.248;149.138;2024-01-30T06:34:35;28.40;65.20
39931;DHT22;26635;-35.248;149.138;2024-01-30T06:37:26;28.40;65.60
39931;DHT22;26635;-35.248;149.138;2024-01-30T06:40:00;28.40;66.60
39931;DHT22;26635;-35.248;149.138;2024-01-30T06:42:31;28.30;66.10
39931;DHT22;26635;-35.248;149.138;2024-01-30T06:45:01;28.30;65.90
39931;DHT22;26635;-35.248;149.138;2024-01-30T06:47:31;28.30;65.50
39931;DHT22;26635;-35.248;149.138;2024-01-30T06:50:02;28.20;65.90
39931;DHT22;26635;-35.248;149.138;2024-01-30T06:52:34;28.10;65.70
39931;DHT22;26635;-35.248;149.138;2024-01-30T06:55:05;28.10;65.40
39931;DHT22;26635;-35.248;149.138;2024-01-30T06:57:36;28.00;66.70
39931;DHT22;26635;-35.248;149.138;2024-01-30T07:00:06;28.00;66.90
39931;DHT22;26635;-35.248;149.138;2024-01-30T07:02:37;28.00;66.60
39931;DHT22;26635;-35.248;149.138;2024-01-30T07:05:07;27.90;66.10
39931;DHT22;26635;-35.248;149.138;2024-01-30T07:07:38;27.80;66.60
39931;DHT22;26635;-35.248;149.138;2024-01-30T07:10:09;27.90;66.80
39931;DHT22;26635;-35.248;149.138;2024-01-30T07:12:39;27.80;67.10
39931;DHT22;26635;-35.248;149.138;2024-01-30T07:15:13;27.70;67.20
39931;DHT22;26635;-35.248;149.138;2024-01-30T07:17:46;27.70;67.60
39931;DHT22;26635;-35.248;149.138;2024-01-30T07:20:17;27.60;66.30
39931;DHT22;26635;-35.248;149.138;2024-01-30T07:22:50;27.70;66.70
39931;DHT22;26635;-35.248;149.138;2024-01-30T07:25:20;27.60;67.50
39931;DHT22;26635;-35.248;149.138;2024-01-30T07:27:51;27.60;67.20
39931;DHT22;26635;-35.248;149.138;2024-01-30T07:30:22;27.50;68.00
39931;DHT22;26635;-35.248;149.138;2024-01-30T07:32:53;27.50;67.80
39931;DHT22;26635;-35.248;149.138;2024-01-30T07:35:23;27.50;68.30
39931;DHT22;26635;-35.248;149.138;2024-01-30T07:37:54;27.40;68.50
39931;DHT22;26635;-35.248;149.138;2024-01-30T07:40:25;27.40;68.40
39931;DHT22;26635;-35.248;149.138;2024-01-30T07:42:55;27.30;68.70
39931;DHT22;26635;-35.248;149.138;2024-01-30T07:45:26;27.30;68.90
39931;DHT22;26635;-35.248;149.138;2024-01-30T07:48:01;27.20;69.40
39931;DHT22;26635;-35.248;149.138;2024-01-30T07:50:32;27.20;69.40
39931;DHT22;26635;-35.248;149.138;2024-01-30T07:53:02;27.10;69.30
39931;DHT22;26635;-35.248;149.138;2024-01-30T07:55:33;27.10;69.70
39931;DHT22;26635;-35.248;149.138;2024-01-30T07:58:03;27.10;69.30
39931;DHT22;26635;-35.248;149.138;2024-01-30T08:00:34;27.00;69.20
39931;DHT22;26635;-35.248;149.138;2024-01-30T08:03:05;27.00;69.30
39931;DHT22;26635;-35.248;149.138;2024-01-30T08:05:35;27.00;69.80
39931;DHT22;26635;-35.248;149.138;2024-01-30T08:08:06;27.00;70.30
39931;DHT22;26635;-35.248;149.138;2024-01-30T08:10:37;26.90;70.30
39931;DHT22;26635;-35.248;149.138;2024-01-30T08:13:08;26.90;70.30
39931;DHT22;26635;-35.248;149.138;2024-01-30T08:15:38;26.80;70.70
39931;DHT22;26635;-35.248;149.138;2024-01-30T08:18:09;26.70;72.10
39931;DHT22;26635;-35.248;149.138;2024-01-30T08:20:39;26.70;71.10
39931;DHT22;26635;-35.248;149.138;2024-01-30T08:23:10;26.60;71.10
39931;DHT22;26635;-35.248;149.138;2024-01-30T08:25:40;26.50;71.70
39931;DHT22;26635;-35.248;149.138;2024-01-30T08:28:11;26.40;72.90
39931;DHT22;26635;-35.248;149.138;2024-01-30T08:30:43;26.30;72.70
39931;DHT22;26635;-35.248;149.138;2024-01-30T08:33:15;26.30;72.90
39931;DHT22;26635;-35.248;149.138;2024-01-30T08:35:46;26.20;72.90
39931;DHT22;26635;-35.248;149.138;2024-01-30T08:38:16;26.20;73.20
39931;DHT22;26635;-35.248;149.138;2024-01-30T08:40:56;26.10;73.60
39931;DHT22;26635;-35.248;149.138;2024-01-30T08:43:26;26.10;73.90
39931;DHT22;26635;-35.248;149.138;2024-01-30T08:45:59;26.10;73.80
39931;DHT22;26635;-35.248;149.138;2024-01-30T08:48:30;26.00;73.80
39931;DHT22;26635;-35.248;149.138;2024-01-30T08:51:00;25.90;74.20
39931;DHT22;26635;-35.248;149.138;2024-01-30T08:53:54;25.90;74.30
39931;DHT22;26635;-35.248;149.138;2024-01-30T08:56:25;25.80;74.20
39931;DHT22;26635;-35.248;149.138;2024-01-30T08:58:56;25.80;74.10
39931;DHT22;26635;-35.248;149.138;2024-01-30T09:01:26;25.70;74.50
39931;DHT22;26635;-35.248;149.138;2024-01-30T09:03:57;25.60;74.60
39931;DHT22;26635;-35.248;149.138;2024-01-30T09:06:28;25.60;74.80
39931;DHT22;26635;-35.248;149.138;2024-01-30T09:08:58;25.60;75.20
39931;DHT22;26635;-35.248;149.138;2024-01-30T09:11:28;25.60;75.40
39931;DHT22;26635;-35.248;149.138;2024-01-30T09:14:00;25.50;75.80
39931;DHT22;26635;-35.248;149.138;2024-01-30T09:16:33;25.40;75.50
39931;DHT22;26635;-35.248;149.138;2024-01-30T09:19:04;25.40;75.90
39931;DHT22;26635;-35.248;149.138;2024-01-30T09:21:34;25.20;75.70
39931;DHT22;26635;-35.248;149.138;2024-01-30T09:24:06;25.20;76.30
39931;DHT22;26635;-35.248;149.138;2024-01-30T09:26:36;25.20;76.40
39931;DHT22;26635;-35.248;149.138;2024-01-30T09:29:07;25.10;76.50
39931;DHT22;26635;-35.248;149.138;2024-01-30T09:31:38;25.00;76.90
39931;DHT22;26635;-35.248;149.138;2024-01-30T09:34:10;25.00;77.20
39931;DHT22;26635;-35.248;149.138;2024-01-30T09:36:43;25.00;77.40
39931;DHT22;26635;-35.248;149.138;2024-01-30T09:39:14;24.80;77.10
39931;DHT22;26635;-35.248;149.138;2024-01-30T09:44:55;24.50;78.40
39931;DHT22;26635;-35.248;149.138;2024-01-30T09:47:27;24.50;78.70
39931;DHT22;26635;-35.248;149.138;2024-01-30T09:49:58;24.50;79.00
39931;DHT22;26635;-35.248;149.138;2024-01-30T09:52:29;24.40;79.00
39931;DHT22;26635;-35.248;149.138;2024-01-30T09:55:00;24.30;79.30
39931;DHT22;26635;-35.248;149.138;2024-01-30T09:57:35;24.20;79.70
39931;DHT22;26635;-35.248;149.138;2024-01-30T10:00:07;24.20;79.90
39931;DHT22;26635;-35.248;149.138;2024-01-30T10:02:39;24.20;79.90
39931;DHT22;26635;-35.248;149.138;2024-01-30T10:05:11;24.10;80.50
39931;DHT22;26635;-35.248;149.138;2024-01-30T10:07:55;24.00;80.20
39931;DHT22;26635;-35.248;149.138;2024-01-30T10:10:27;24.10;80.50
39931;DHT22;26635;-35.248;149.138;2024-01-30T10:12:58;24.00;80.70
39931;DHT22;26635;-35.248;149.138;2024-01-30T10:15:33;24.00;80.40
39931;DHT22;26635;-35.248;149.138;2024-01-30T10:18:11;24.00;80.40
39931;DHT22;26635;-35.248;149.138;2024-01-30T10:20:42;23.90;80.50
39931;DHT22;26635;-35.248;149.138;2024-01-30T10:23:13;23.80;81.20
39931;DHT22;26635;-35.248;149.138;2024-01-30T10:25:44;23.70;81.60
39931;DHT22;26635;-35.248;149.138;2024-01-30T10:28:16;23.70;81.70
39931;DHT22;26635;-35.248;149.138;2024-01-30T10:30:56;23.60;82.10
39931;DHT22;26635;-35.248;149.138;2024-01-30T10:33:31;23.60;82.10
39931;DHT22;26635;-35.248;149.138;2024-01-30T10:36:04;23.60;82.10
39931;DHT22;26635;-35.248;149.138;2024-01-30T10:38:35;23.60;82.20
39931;DHT22;26635;-35.248;149.138;2024-01-30T10:41:07;23.40;82.40
39931;DHT22;26635;-35.248;149.138;2024-01-30T10:43:41;23.40;83.00
39931;DHT22;26635;-35.248;149.138;2024-01-30T10:46:19;23.40;83.20
39931;DHT22;26635;-35.248;149.138;2024-01-30T10:49:10;23.40;83.10
39931;DHT22;26635;-35.248;149.138;2024-01-30T10:51:42;23.40;83.10
39931;DHT22;26635;-35.248;149.138;2024-01-30T10:54:14;23.40;83.00
39931;DHT22;26635;-35.248;149.138;2024-01-30T10:56:45;23.40;83.40
39931;DHT22;26635;-35.248;149.138;2024-01-30T10:59:19;23.30;83.00
39931;DHT22;26635;-35.248;149.138;2024-01-30T11:01:50;23.30;83.30
39931;DHT22;26635;-35.248;149.138;2024-01-30T11:04:21;23.20;83.30
39931;DHT22;26635;-35.248;149.138;2024-01-30T11:06:52;23.20;83.80
39931;DHT22;26635;-35.248;149.138;2024-01-30T11:09:24;23.10;83.30
39931;DHT22;26635;-35.248;149.138;2024-01-30T11:11:58;23.10;83.80
39931;DHT22;26635;-35.248;149.138;2024-01-30T11:14:32;23.10;83.90
39931;DHT22;26635;-35.248;149.138;2024-01-30T11:17:04;23.00;83.80
39931;DHT22;26635;-35.248;149.138;2024-01-30T11:19:35;23.00;84.00
39931;DHT22;26635;-35.248;149.138;2024-01-30T11:22:10;23.00;84.40
39931;DHT22;26635;-35.248;149.138;2024-01-30T11:24:41;23.00;84.60
39931;DHT22;26635;-35.248;149.138;2024-01-30T11:27:12;22.90;84.90
39931;DHT22;26635;-35.248;149.138;2024-01-30T11:29:49;22.90;84.70
39931;DHT22;26635;-35.248;149.138;2024-01-30T11:32:24;22.90;85.00
39931;DHT22;26635;-35.248;149.138;2024-01-30T11:34:55;22.80;84.70
39931;DHT22;26635;-35.248;149.138;2024-01-30T11:37:26;22.80;85.30
39931;DHT22;26635;-35.248;149.138;2024-01-30T11:39:59;22.80;85.00
39931;DHT22;26635;-35.248;149.138;2024-01-30T11:42:30;22.80;85.30
39931;DHT22;26635;-35.248;149.138;2024-01-30T11:45:02;22.70;85.40
39931;DHT22;26635;-35.248;149.138;2024-01-30T11:47:36;22.70;85.60
39931;DHT22;26635;-35.248;149.138;2024-01-30T11:50:11;22.60;85.60
39931;DHT22;26635;-35.248;149.138;2024-01-30T11:52:42;22.60;85.80
39931;DHT22;26635;-35.248;149.138;2024-01-30T11:55:14;22.50;86.00
39931;DHT22;26635;-35.248;149.138;2024-01-30T11:57:45;22.50;86.50
39931;DHT22;26635;-35.248;149.138;2024-01-30T12:00:18;22.50;86.40
39931;DHT22;26635;-35.248;149.138;2024-01-30T12:02:51;22.50;86.40
39931;DHT22;26635;-35.248;149.138;2024-01-30T12:05:28;22.50;86.70
39931;DHT22;26635;-35.248;149.138;2024-01-30T12:07:59;22.50;86.50
39931;DHT22;26635;-35.248;149.138;2024-01-30T12:10:31;22.50;86.40
39931;DHT22;26635;-35.248;149.138;2024-01-30T12:13:02;22.50;86.40
39931;DHT22;26635;-35.248;149.138;2024-01-30T12:15:34;22.50;86.30
39931;DHT22;26635;-35.248;149.138;2024-01-30T12:18:08;22.50;86.30
39931;DHT22;26635;-35.248;149.138;2024-01-30T12:20:38;22.40;86.50
39931;DHT22;26635;-35.248;149.138;2024-01-30T12:23:11;22.40;86.60
39931;DHT22;26635;-35.248;149.138;2024-01-30T12:25:42;22.40;86.90
39931;DHT22;26635;-35.248;149.138;2024-01-30T12:28:13;22.40;86.80
39931;DHT22;26635;-35.248;149.138;2024-01-30T12:30:45;22.40;86.90
39931;DHT22;26635;-35.248;149.138;2024-01-30T12:33:17;22.50;86.90
39931;DHT22;26635;-35.248;149.138;2024-01-30T12:35:48;22.40;86.90
39931;DHT22;26635;-35.248;149.138;2024-01-30T12:38:29;22.40;86.60
39931;DHT22;26635;-35.248;149.138;2024-01-30T12:41:00;22.40;86.20
39931;DHT22;26635;-35.248;149.138;2024-01-30T12:43:31;22.30;86.40
39931;DHT22;26635;-35.248;149.138;2024-01-30T12:46:28;22.30;86.70
39931;DHT22;26635;-35.248;149.138;2024-01-30T12:48:59;22.20;87.10
39931;DHT22;26635;-35.248;149.138;2024-01-30T12:51:29;22.20;87.40
39931;DHT22;26635;-35.248;149.138;2024-01-30T12:54:05;22.10;87.90
39931;DHT22;26635;-35.248;149.138;2024-01-30T12:56:36;22.10;87.80
39931;DHT22;26635;-35.248;149.138;2024-01-30T12:59:06;22.10;88.10
39931;DHT22;26635;-35.248;149.138;2024-01-30T13:01:37;22.00;88.40
39931;DHT22;26635;-35.248;149.138;2024-01-30T13:04:07;22.00;88.70
39931;DHT22;26635;-35.248;149.138;2024-01-30T13:06:38;21.90;88.80
39931;DHT22;26635;-35.248;149.138;2024-01-30T13:09:09;21.90;89.00
39931;DHT22;26635;-35.248;149.138;2024-01-30T13:11:40;21.90;89.30
39931;DHT22;26635;-35.248;149.138;2024-01-30T13:14:10;21.90;89.40
39931;DHT22;26635;-35.248;149.138;2024-01-30T13:16:40;21.90;89.50
39931;DHT22;26635;-35.248;149.138;2024-01-30T13:19:12;21.80;89.80
39931;DHT22;26635;-35.248;149.138;2024-01-30T13:21:43;21.80;89.80
39931;DHT22;26635;-35.248;149.138;2024-01-30T13:24:15;21.80;90.00
39931;DHT22;26635;-35.248;149.138;2024-01-30T13:26:46;21.80;89.90
39931;DHT22;26635;-35.248;149.138;2024-01-30T13:29:19;21.90;89.90
39931;DHT22;26635;-35.248;149.138;2024-01-30T13:31:51;21.80;89.60
39931;DHT22;26635;-35.248;149.138;2024-01-30T13:34:24;21.90;89.50
39931;DHT22;26635;-35.248;149.138;2024-01-30T13:36:55;21.90;89.70
39931;DHT22;26635;-35.248;149.138;2024-01-30T13:39:26;21.90;89.60
39931;DHT22;26635;-35.248;149.138;2024-01-30T13:42:03;21.90;89.30
39931;DHT22;26635;-35.248;149.138;2024-01-30T13:44:35;21.90;89.40
39931;DHT22;26635;-35.248;149.138;2024-01-30T13:47:06;21.80;89.50
39931;DHT22;26635;-35.248;149.138;2024-01-30T13:49:37;21.80;89.60
39931;DHT22;26635;-35.248;149.138;2024-01-30T13:52:10;21.80;89.80
39931;DHT22;26635;-35.248;149.138;2024-01-30T13:54:43;21.80;90.00
39931;DHT22;26635;-35.248;149.138;2024-01-30T13:57:14;21.80;90.00
39931;DHT22;26635;-35.248;149.138;2024-01-30T13:59:44;21.80;89.80
39931;DHT22;26635;-35.248;149.138;2024-01-30T14:02:14;21.80;90.00
39931;DHT22;26635;-35.248;149.138;2024-01-30T14:04:45;21.80;90.10
39931;DHT22;26635;-35.248;149.138;2024-01-30T14:07:15;21.80;90.10
39931;DHT22;26635;-35.248;149.138;2024-01-30T14:09:48;21.80;90.10
39931;DHT22;26635;-35.248;149.138;2024-01-30T14:12:19;21.80;90.10
39931;DHT22;26635;-35.248;149.138;2024-01-30T14:14:49;21.80;89.90
39931;DHT22;26635;-35.248;149.138;2024-01-30T14:17:21;21.80;89.90
39931;DHT22;26635;-35.248;149.138;2024-01-30T14:19:51;21.80;90.10
39931;DHT22;26635;-35.248;149.138;2024-01-30T14:22:22;21.80;90.00
39931;DHT22;26635;-35.248;149.138;2024-01-30T14:24:52;21.80;90.00
39931;DHT22;26635;-35.248;149.138;2024-01-30T14:27:23;21.70;90.20
39931;DHT22;26635;-35.248;149.138;2024-01-30T14:29:53;21.80;90.10
39931;DHT22;26635;-35.248;149.138;2024-01-30T14:32:24;21.70;90.10
39931;DHT22;26635;-35.248;149.138;2024-01-30T14:34:55;21.80;90.10
39931;DHT22;26635;-35.248;149.138;2024-01-30T14:37:26;21.70;90.20
39931;DHT22;26635;-35.248;149.138;2024-01-30T14:40:02;21.80;90.30
39931;DHT22;26635;-35.248;149.138;2024-01-30T14:42:34;21.80;90.20
39931;DHT22;26635;-35.248;149.138;2024-01-30T14:45:06;21.80;90.10
39931;DHT22;26635;-35.248;149.138;2024-01-30T14:47:38;21.80;90.00
39931;DHT22;26635;-35.248;149.138;2024-01-30T14:50:09;21.80;90.20
39931;DHT22;26635;-35.248;149.138;2024-01-30T14:52:42;21.80;90.20
39931;DHT22;26635;-35.248;149.138;2024-01-30T14:55:14;21.80;90.10
39931;DHT22;26635;-35.248;149.138;2024-01-30T14:57:45;21.80;90.20
39931;DHT22;26635;-35.248;149.138;2024-01-30T15:00:16;21.80;90.10
39931;DHT22;26635;-35.248;149.138;2024-01-30T15:02:46;21.80;90.10
39931;DHT22;26635;-35.248;149.138;2024-01-30T15:05:17;21.80;90.10
39931;DHT22;26635;-35.248;149.138;2024-01-30T15:07:47;21.80;90.10
39931;DHT22;26635;-35.248;149.138;2024-01-30T15:10:38;21.70;90.10
39931;DHT22;26635;-35.248;149.138;2024-01-30T15:13:09;21.70;90.10
39931;DHT22;26635;-35.248;149.138;2024-01-30T15:15:41;21.70;90.20
39931;DHT22;26635;-35.248;149.138;2024-01-30T15:18:12;21.70;90.10